sensor_id;sensor_type;location;lat;lon;timestamp;pressure;altitude;pressure_sealevel;temperature;humidity
61359;BME280;47228;46.762;23.598;2023-01-20T00:01:42;96274.30;;;6.16;78.02
61359;BME280;47228;46.762;23.598;2023-01-20T00:04:13;96281.88;;;6.13;78.15
61359;BME280;47228;46.762;23.598;2023-01-20T00:06:41;96299.36;;;6.11;78.41
61359;BME280;47228;46.762;23.598;2023-01-20T00:09:13;96300.87;;;6.12;78.55
61359;BME280;47228;46.762;23.598;2023-01-20T00:11:41;96295.91;;;6.13;78.43
61359;BME280;47228;46.762;23.598;2023-01-20T00:14:11;96304.40;;;6.15;78.50
61359;BME280;47228;46.762;23.598;2023-01-20T00:16:39;96313.45;;;6.17;78.29
61359;BME280;47228;46.762;23.598;2023-01-20T00:19:08;96314.09;;;6.18;78.29
61359;BME280;47228;46.762;23.598;2023-01-20T00:21:37;96319.05;;;6.18;78.31
61359;BME280;47228;46.762;23.598;2023-01-20T00:24:05;96325.70;;;6.16;78.52
61359;BME280;47228;46.762;23.598;2023-01-20T00:26:33;96325.49;;;6.15;78.69
61359;BME280;47228;46.762;23.598;2023-01-20T00:29:01;96311.00;;;6.12;78.43
61359;BME280;47228;46.762;23.598;2023-01-20T00:31:30;96297.98;;;6.09;78.60
61359;BME280;47228;46.762;23.598;2023-01-20T00:33:59;96298.10;;;6.07;78.88
61359;BME280;47228;46.762;23.598;2023-01-20T00:36:30;96299.36;;;6.05;78.82
61359;BME280;47228;46.762;23.598;2023-01-20T00:38:59;96302.72;;;6.04;78.91
61359;BME280;47228;46.762;23.598;2023-01-20T00:41:28;96300.35;;;6.03;78.68
61359;BME280;47228;46.762;23.598;2023-01-20T00:43:56;96308.69;;;6.01;78.25
61359;BME280;47228;46.762;23.598;2023-01-20T00:46:24;96306.27;;;5.96;78.21
61359;BME280;47228;46.762;23.598;2023-01-20T00:48:52;96305.95;;;5.93;78.33
61359;BME280;47228;46.762;23.598;2023-01-20T00:51:20;96302.17;;;5.91;78.30
61359;BME280;47228;46.762;23.598;2023-01-20T00:53:48;96302.45;;;5.88;78.36
61359;BME280;47228;46.762;23.598;2023-01-20T00:56:15;96301.39;;;5.84;78.24
61359;BME280;47228;46.762;23.598;2023-01-20T00:58:44;96300.88;;;5.81;78.38
61359;BME280;47228;46.762;23.598;2023-01-20T01:01:12;96297.17;;;5.81;78.63
61359;BME280;47228;46.762;23.598;2023-01-20T01:03:40;96298.11;;;5.82;78.85
61359;BME280;47228;46.762;23.598;2023-01-20T01:06:13;96296.03;;;5.80;78.47
61359;BME280;47228;46.762;23.598;2023-01-20T01:08:42;96295.25;;;5.78;78.68
61359;BME280;47228;46.762;23.598;2023-01-20T01:11:12;96294.07;;;5.75;78.59
61359;BME280;47228;46.762;23.598;2023-01-20T01:13:40;96291.17;;;5.73;78.76
61359;BME280;47228;46.762;23.598;2023-01-20T01:16:10;96282.63;;;5.71;79.05
61359;BME280;47228;46.762;23.598;2023-01-20T01:18:40;96274.06;;;5.69;79.00
61359;BME280;47228;46.762;23.598;2023-01-20T01:21:10;96267.34;;;5.68;79.13
61359;BME280;47228;46.762;23.598;2023-01-20T01:23:38;96259.96;;;5.68;79.38
61359;BME280;47228;46.762;23.598;2023-01-20T01:26:07;96251.16;;;5.67;79.27
61359;BME280;47228;46.762;23.598;2023-01-20T01:28:35;96245.08;;;5.65;79.08
61359;BME280;47228;46.762;23.598;2023-01-20T01:31:04;96236.45;;;5.63;79.38
61359;BME280;47228;46.762;23.598;2023-01-20T01:33:33;96230.13;;;5.63;79.53
61359;BME280;47228;46.762;23.598;2023-01-20T01:36:02;96234.45;;;5.62;79.33
61359;BME280;47228;46.762;23.598;2023-01-20T01:38:31;96243.60;;;5.58;79.54
61359;BME280;47228;46.762;23.598;2023-01-20T01:40:59;96246.10;;;5.52;79.90
61359;BME280;47228;46.762;23.598;2023-01-20T01:43:33;96241.70;;;5.46;80.08
61359;BME280;47228;46.762;23.598;2023-01-20T01:46:02;96249.88;;;5.44;80.41
61359;BME280;47228;46.762;23.598;2023-01-20T01:48:42;96246.55;;;5.42;80.60
61359;BME280;47228;46.762;23.598;2023-01-20T01:51:17;96249.71;;;5.42;80.94
61359;BME280;47228;46.762;23.598;2023-01-20T01:53:49;96247.28;;;5.42;81.00
61359;BME280;47228;46.762;23.598;2023-01-20T01:56:20;96244.41;;;5.41;81.00
61359;BME280;47228;46.762;23.598;2023-01-20T01:58:50;96252.17;;;5.38;81.23
61359;BME280;47228;46.762;23.598;2023-01-20T02:01:20;96257.84;;;5.39;81.44
61359;BME280;47228;46.762;23.598;2023-01-20T02:04:11;96258.41;;;5.41;81.38
61359;BME280;47228;46.762;23.598;2023-01-20T02:06:43;96258.54;;;5.42;81.51
61359;BME280;47228;46.762;23.598;2023-01-20T02:09:12;96252.27;;;5.40;81.54
61359;BME280;47228;46.762;23.598;2023-01-20T02:11:44;96246.19;;;5.39;81.62
61359;BME280;47228;46.762;23.598;2023-01-20T02:14:17;96247.98;;;5.35;81.59
61359;BME280;47228;46.762;23.598;2023-01-20T02:17:04;96255.27;;;5.32;82.12
61359;BME280;47228;46.762;23.598;2023-01-20T02:25:16;96270.29;;;5.30;82.45
61359;BME280;47228;46.762;23.598;2023-01-20T02:33:14;96278.36;;;5.29;83.04
61359;BME280;47228;46.762;23.598;2023-01-20T02:35:47;96283.10;;;5.31;83.43
61359;BME280;47228;46.762;23.598;2023-01-20T02:46:58;96275.41;;;5.32;84.09
61359;BME280;47228;46.762;23.598;2023-01-20T02:49:31;96268.96;;;5.32;84.22
61359;BME280;47228;46.762;23.598;2023-01-20T02:52:10;96264.21;;;5.29;84.26
61359;BME280;47228;46.762;23.598;2023-01-20T02:54:43;96260.23;;;5.26;84.45
61359;BME280;47228;46.762;23.598;2023-01-20T02:57:16;96262.04;;;5.23;84.76
61359;BME280;47228;46.762;23.598;2023-01-20T02:59:50;96257.02;;;5.22;85.09
61359;BME280;47228;46.762;23.598;2023-01-20T03:02:20;96253.85;;;5.21;85.19
61359;BME280;47228;46.762;23.598;2023-01-20T03:05:09;96252.95;;;5.18;85.15
61359;BME280;47228;46.762;23.598;2023-01-20T03:07:42;96250.45;;;5.12;85.37
61359;BME280;47228;46.762;23.598;2023-01-20T03:10:15;96250.63;;;5.05;85.41
61359;BME280;47228;46.762;23.598;2023-01-20T03:12:52;96252.58;;;4.97;85.62
61359;BME280;47228;46.762;23.598;2023-01-20T03:15:32;96248.86;;;4.91;85.93
61359;BME280;47228;46.762;23.598;2023-01-20T03:18:02;96247.95;;;4.83;86.30
61359;BME280;47228;46.762;23.598;2023-01-20T03:20:30;96246.42;;;4.76;86.65
61359;BME280;47228;46.762;23.598;2023-01-20T03:23:19;96247.66;;;4.75;86.86
61359;BME280;47228;46.762;23.598;2023-01-20T03:26:50;96251.88;;;4.74;87.14
61359;BME280;47228;46.762;23.598;2023-01-20T03:29:19;96247.46;;;4.68;87.12
61359;BME280;47228;46.762;23.598;2023-01-20T03:31:51;96250.35;;;4.66;87.37
61359;BME280;47228;46.762;23.598;2023-01-20T03:34:29;96248.48;;;4.68;87.77
61359;BME280;47228;46.762;23.598;2023-01-20T03:36:59;96249.35;;;4.71;87.59
61359;BME280;47228;46.762;23.598;2023-01-20T03:39:27;96249.84;;;4.73;87.54
61359;BME280;47228;46.762;23.598;2023-01-20T03:52:39;96223.11;;;4.69;87.32
61359;BME280;47228;46.762;23.598;2023-01-20T03:55:42;96212.55;;;4.68;87.50
61359;BME280;47228;46.762;23.598;2023-01-20T03:58:16;96197.99;;;4.65;87.41
61359;BME280;47228;46.762;23.598;2023-01-20T04:00:48;96194.82;;;4.61;87.30
61359;BME280;47228;46.762;23.598;2023-01-20T04:03:24;96194.05;;;4.59;87.77
61359;BME280;47228;46.762;23.598;2023-01-20T04:05:55;96195.41;;;4.58;87.72
61359;BME280;47228;46.762;23.598;2023-01-20T04:08:27;96192.70;;;4.59;87.69
61359;BME280;47228;46.762;23.598;2023-01-20T04:10:58;96187.70;;;4.61;88.01
61359;BME280;47228;46.762;23.598;2023-01-20T04:13:28;96181.52;;;4.65;88.32
61359;BME280;47228;46.762;23.598;2023-01-20T04:15:57;96179.09;;;4.68;88.16
61359;BME280;47228;46.762;23.598;2023-01-20T04:18:26;96180.14;;;4.69;88.05
61359;BME280;47228;46.762;23.598;2023-01-20T04:21:00;96191.46;;;4.70;87.73
61359;BME280;47228;46.762;23.598;2023-01-20T04:23:48;96194.88;;;4.71;87.73
61359;BME280;47228;46.762;23.598;2023-01-20T04:26:18;96198.35;;;4.71;87.51
61359;BME280;47228;46.762;23.598;2023-01-20T04:28:46;96204.86;;;4.71;87.60
61359;BME280;47228;46.762;23.598;2023-01-20T04:31:14;96212.27;;;4.70;87.73
61359;BME280;47228;46.762;23.598;2023-01-20T04:33:57;96207.59;;;4.73;88.03
61359;BME280;47228;46.762;23.598;2023-01-20T04:36:25;96193.23;;;4.75;88.04
61359;BME280;47228;46.762;23.598;2023-01-20T04:38:53;96191.72;;;4.77;87.71
61359;BME280;47228;46.762;23.598;2023-01-20T04:41:21;96188.61;;;4.80;87.52
61359;BME280;47228;46.762;23.598;2023-01-20T04:43:49;96190.55;;;4.81;87.45
61359;BME280;47228;46.762;23.598;2023-01-20T04:46:17;96194.36;;;4.82;87.24
61359;BME280;47228;46.762;23.598;2023-01-20T04:48:45;96193.26;;;4.79;87.14
61359;BME280;47228;46.762;23.598;2023-01-20T04:51:13;96187.79;;;4.78;87.15
61359;BME280;47228;46.762;23.598;2023-01-20T04:53:41;96177.58;;;4.77;87.12
61359;BME280;47228;46.762;23.598;2023-01-20T04:56:11;96176.28;;;4.76;87.15
61359;BME280;47228;46.762;23.598;2023-01-20T04:58:40;96181.64;;;4.77;87.44
61359;BME280;47228;46.762;23.598;2023-01-20T05:01:09;96179.82;;;4.77;87.62
61359;BME280;47228;46.762;23.598;2023-01-20T05:03:37;96185.20;;;4.78;87.24
61359;BME280;47228;46.762;23.598;2023-01-20T05:06:05;96177.95;;;4.77;87.24
61359;BME280;47228;46.762;23.598;2023-01-20T05:08:33;96167.14;;;4.75;87.30
61359;BME280;47228;46.762;23.598;2023-01-20T05:11:02;96167.98;;;4.74;87.34
61359;BME280;47228;46.762;23.598;2023-01-20T05:13:30;96161.61;;;4.71;87.23
61359;BME280;47228;46.762;23.598;2023-01-20T05:15:58;96162.30;;;4.69;87.32
61359;BME280;47228;46.762;23.598;2023-01-20T05:18:29;96161.11;;;4.69;87.85
61359;BME280;47228;46.762;23.598;2023-01-20T05:20:57;96165.23;;;4.68;87.85
61359;BME280;47228;46.762;23.598;2023-01-20T05:23:25;96162.64;;;4.66;87.75
61359;BME280;47228;46.762;23.598;2023-01-20T05:25:53;96163.77;;;4.63;87.65
61359;BME280;47228;46.762;23.598;2023-01-20T05:28:22;96162.98;;;4.61;87.69
61359;BME280;47228;46.762;23.598;2023-01-20T05:30:50;96160.27;;;4.61;88.00
61359;BME280;47228;46.762;23.598;2023-01-20T05:33:18;96163.71;;;4.62;87.89
61359;BME280;47228;46.762;23.598;2023-01-20T05:35:46;96165.52;;;4.61;87.86
61359;BME280;47228;46.762;23.598;2023-01-20T05:38:14;96160.42;;;4.60;88.07
61359;BME280;47228;46.762;23.598;2023-01-20T05:40:42;96164.39;;;4.59;88.34
61359;BME280;47228;46.762;23.598;2023-01-20T05:43:10;96162.37;;;4.60;88.40
61359;BME280;47228;46.762;23.598;2023-01-20T05:45:40;96162.54;;;4.60;88.25
61359;BME280;47228;46.762;23.598;2023-01-20T05:48:08;96157.52;;;4.62;88.73
61359;BME280;47228;46.762;23.598;2023-01-20T05:50:36;96155.92;;;4.67;88.96
61359;BME280;47228;46.762;23.598;2023-01-20T05:53:04;96152.29;;;4.70;88.66
61359;BME280;47228;46.762;23.598;2023-01-20T05:55:32;96149.75;;;4.70;88.50
61359;BME280;47228;46.762;23.598;2023-01-20T05:58:01;96148.50;;;4.71;88.75
61359;BME280;47228;46.762;23.598;2023-01-20T06:00:29;96151.50;;;4.74;88.57
61359;BME280;47228;46.762;23.598;2023-01-20T06:02:58;96149.52;;;4.73;88.41
61359;BME280;47228;46.762;23.598;2023-01-20T06:05:26;96146.73;;;4.72;88.18
61359;BME280;47228;46.762;23.598;2023-01-20T06:07:55;96150.04;;;4.72;88.34
61359;BME280;47228;46.762;23.598;2023-01-20T06:10:24;96150.11;;;4.70;88.20
61359;BME280;47228;46.762;23.598;2023-01-20T06:12:55;96142.77;;;4.68;88.39
61359;BME280;47228;46.762;23.598;2023-01-20T06:15:23;96135.72;;;4.65;88.38
61359;BME280;47228;46.762;23.598;2023-01-20T06:17:54;96137.23;;;4.65;88.41
61359;BME280;47228;46.762;23.598;2023-01-20T06:20:22;96138.32;;;4.67;88.72
61359;BME280;47228;46.762;23.598;2023-01-20T06:22:53;96145.46;;;4.70;88.73
61359;BME280;47228;46.762;23.598;2023-01-20T06:25:21;96151.09;;;4.73;88.95
61359;BME280;47228;46.762;23.598;2023-01-20T06:27:49;96155.19;;;4.75;88.74
61359;BME280;47228;46.762;23.598;2023-01-20T06:30:17;96154.14;;;4.75;88.58
61359;BME280;47228;46.762;23.598;2023-01-20T06:32:46;96150.09;;;4.74;88.38
61359;BME280;47228;46.762;23.598;2023-01-20T06:35:15;96149.10;;;4.69;88.11
61359;BME280;47228;46.762;23.598;2023-01-20T06:37:43;96145.61;;;4.68;88.45
61359;BME280;47228;46.762;23.598;2023-01-20T06:40:12;96143.64;;;4.70;88.89
61359;BME280;47228;46.762;23.598;2023-01-20T06:42:41;96145.67;;;4.70;88.76
61359;BME280;47228;46.762;23.598;2023-01-20T06:45:10;96141.49;;;4.70;88.89
61359;BME280;47228;46.762;23.598;2023-01-20T06:47:37;96139.88;;;4.71;88.82
61359;BME280;47228;46.762;23.598;2023-01-20T06:50:06;96145.34;;;4.73;88.98
61359;BME280;47228;46.762;23.598;2023-01-20T06:52:34;96147.34;;;4.74;88.75
61359;BME280;47228;46.762;23.598;2023-01-20T06:55:02;96143.29;;;4.72;88.60
61359;BME280;47228;46.762;23.598;2023-01-20T06:57:30;96142.67;;;4.72;88.73
61359;BME280;47228;46.762;23.598;2023-01-20T06:59:58;96141.73;;;4.71;88.73
61359;BME280;47228;46.762;23.598;2023-01-20T07:02:26;96146.39;;;4.70;88.79
61359;BME280;47228;46.762;23.598;2023-01-20T07:04:53;96151.69;;;4.70;88.85
61359;BME280;47228;46.762;23.598;2023-01-20T07:07:21;96149.14;;;4.70;88.78
61359;BME280;47228;46.762;23.598;2023-01-20T07:09:53;96151.02;;;4.70;88.94
61359;BME280;47228;46.762;23.598;2023-01-20T07:12:21;96149.41;;;4.67;88.73
61359;BME280;47228;46.762;23.598;2023-01-20T07:14:49;96148.42;;;4.63;88.72
61359;BME280;47228;46.762;23.598;2023-01-20T07:17:17;96156.02;;;4.63;88.68
61359;BME280;47228;46.762;23.598;2023-01-20T07:19:45;96156.91;;;4.61;88.52
61359;BME280;47228;46.762;23.598;2023-01-20T07:22:13;96156.27;;;4.62;89.04
61359;BME280;47228;46.762;23.598;2023-01-20T07:24:41;96157.52;;;4.65;88.94
61359;BME280;47228;46.762;23.598;2023-01-20T07:27:09;96155.06;;;4.66;89.04
61359;BME280;47228;46.762;23.598;2023-01-20T07:29:36;96152.20;;;4.67;88.94
61359;BME280;47228;46.762;23.598;2023-01-20T07:32:05;96155.54;;;4.70;89.06
61359;BME280;47228;46.762;23.598;2023-01-20T07:34:33;96154.33;;;4.72;89.06
61359;BME280;47228;46.762;23.598;2023-01-20T07:37:01;96154.83;;;4.75;89.14
61359;BME280;47228;46.762;23.598;2023-01-20T07:39:29;96162.30;;;4.80;89.41
61359;BME280;47228;46.762;23.598;2023-01-20T07:41:56;96169.27;;;4.85;89.48
61359;BME280;47228;46.762;23.598;2023-01-20T07:44:24;96169.05;;;4.88;89.30
61359;BME280;47228;46.762;23.598;2023-01-20T07:46:53;96170.23;;;4.91;89.20
61359;BME280;47228;46.762;23.598;2023-01-20T07:49:21;96170.09;;;4.94;89.24
61359;BME280;47228;46.762;23.598;2023-01-20T07:51:49;96169.85;;;4.96;89.16
61359;BME280;47228;46.762;23.598;2023-01-20T07:54:17;96168.80;;;4.96;88.63
61359;BME280;47228;46.762;23.598;2023-01-20T07:56:45;96166.04;;;4.95;88.75
61359;BME280;47228;46.762;23.598;2023-01-20T07:59:13;96162.20;;;4.97;88.94
61359;BME280;47228;46.762;23.598;2023-01-20T08:01:41;96165.70;;;5.00;88.46
61359;BME280;47228;46.762;23.598;2023-01-20T08:04:09;96154.60;;;5.01;88.33
61359;BME280;47228;46.762;23.598;2023-01-20T08:06:39;96144.60;;;5.02;88.64
61359;BME280;47228;46.762;23.598;2023-01-20T08:09:07;96138.80;;;5.07;89.01
61359;BME280;47228;46.762;23.598;2023-01-20T08:11:39;96133.54;;;5.12;88.87
61359;BME280;47228;46.762;23.598;2023-01-20T08:14:07;96133.16;;;5.19;89.19
61359;BME280;47228;46.762;23.598;2023-01-20T08:16:35;96132.64;;;5.26;88.94
61359;BME280;47228;46.762;23.598;2023-01-20T08:19:03;96134.60;;;5.31;88.80
61359;BME280;47228;46.762;23.598;2023-01-20T08:21:31;96137.68;;;5.33;88.42
61359;BME280;47228;46.762;23.598;2023-01-20T08:24:01;96129.61;;;5.32;87.87
61359;BME280;47228;46.762;23.598;2023-01-20T08:26:32;96124.42;;;5.27;87.74
61359;BME280;47228;46.762;23.598;2023-01-20T08:29:08;96129.36;;;5.23;87.99
61359;BME280;47228;46.762;23.598;2023-01-20T08:31:37;96132.80;;;5.21;88.38
61359;BME280;47228;46.762;23.598;2023-01-20T08:34:05;96131.95;;;5.18;88.21
61359;BME280;47228;46.762;23.598;2023-01-20T08:36:35;96130.83;;;5.15;88.42
61359;BME280;47228;46.762;23.598;2023-01-20T08:39:06;96126.30;;;5.15;88.67
61359;BME280;47228;46.762;23.598;2023-01-20T08:41:37;96124.24;;;5.20;89.14
61359;BME280;47228;46.762;23.598;2023-01-20T08:44:07;96121.63;;;5.27;89.23
61359;BME280;47228;46.762;23.598;2023-01-20T08:46:37;96125.73;;;5.33;89.16
61359;BME280;47228;46.762;23.598;2023-01-20T08:49:13;96128.58;;;5.39;89.04
61359;BME280;47228;46.762;23.598;2023-01-20T08:51:42;96131.73;;;5.41;88.89
61359;BME280;47228;46.762;23.598;2023-01-20T08:54:12;96129.14;;;5.44;88.40
61359;BME280;47228;46.762;23.598;2023-01-20T08:56:41;96124.09;;;5.46;88.47
61359;BME280;47228;46.762;23.598;2023-01-20T08:59:09;96125.87;;;5.50;88.44
61359;BME280;47228;46.762;23.598;2023-01-20T09:01:38;96129.55;;;5.51;88.08
61359;BME280;47228;46.762;23.598;2023-01-20T09:04:06;96137.27;;;5.48;87.47
61359;BME280;47228;46.762;23.598;2023-01-20T09:06:40;96133.28;;;5.43;87.57
61359;BME280;47228;46.762;23.598;2023-01-20T09:09:09;96124.33;;;5.40;87.48
61359;BME280;47228;46.762;23.598;2023-01-20T09:11:37;96115.15;;;5.35;87.28
61359;BME280;47228;46.762;23.598;2023-01-20T09:14:05;96106.21;;;5.34;87.66
61359;BME280;47228;46.762;23.598;2023-01-20T09:16:33;96107.98;;;5.32;87.88
61359;BME280;47228;46.762;23.598;2023-01-20T09:19:02;96111.91;;;5.32;88.01
61359;BME280;47228;46.762;23.598;2023-01-20T09:21:30;96118.54;;;5.27;87.81
61359;BME280;47228;46.762;23.598;2023-01-20T09:23:58;96112.38;;;5.24;87.85
61359;BME280;47228;46.762;23.598;2023-01-20T09:26:26;96115.54;;;5.24;88.44
61359;BME280;47228;46.762;23.598;2023-01-20T09:29:14;96111.02;;;5.24;88.30
61359;BME280;47228;46.762;23.598;2023-01-20T09:31:50;96109.47;;;5.24;88.64
61359;BME280;47228;46.762;23.598;2023-01-20T09:34:19;96118.75;;;5.28;88.98
61359;BME280;47228;46.762;23.598;2023-01-20T09:36:56;96122.97;;;5.30;88.61
61359;BME280;47228;46.762;23.598;2023-01-20T09:39:24;96119.00;;;5.31;88.18
61359;BME280;47228;46.762;23.598;2023-01-20T09:42:28;96110.45;;;5.29;88.43
61359;BME280;47228;46.762;23.598;2023-01-20T09:45:21;96100.36;;;5.30;88.60
61359;BME280;47228;46.762;23.598;2023-01-20T09:48:11;96088.33;;;5.29;88.63
61359;BME280;47228;46.762;23.598;2023-01-20T09:50:49;96081.49;;;5.30;88.89
61359;BME280;47228;46.762;23.598;2023-01-20T09:54:13;96072.30;;;5.35;88.66
61359;BME280;47228;46.762;23.598;2023-01-20T09:56:46;96062.58;;;5.38;88.62
61359;BME280;47228;46.762;23.598;2023-01-20T10:01:50;96057.36;;;5.46;88.60
61359;BME280;47228;46.762;23.598;2023-01-20T10:04:31;96049.05;;;5.51;88.64
61359;BME280;47228;46.762;23.598;2023-01-20T10:07:13;96051.04;;;5.55;88.70
61359;BME280;47228;46.762;23.598;2023-01-20T10:12:17;96045.42;;;5.66;88.39
61359;BME280;47228;46.762;23.598;2023-01-20T10:15:15;96041.97;;;5.73;88.24
61359;BME280;47228;46.762;23.598;2023-01-20T10:23:20;96037.34;;;5.84;87.33
61359;BME280;47228;46.762;23.598;2023-01-20T10:28:26;96036.58;;;5.80;86.51
61359;BME280;47228;46.762;23.598;2023-01-20T10:30:56;96037.95;;;5.79;86.87
61359;BME280;47228;46.762;23.598;2023-01-20T10:33:38;96041.48;;;5.83;87.25
61359;BME280;47228;46.762;23.598;2023-01-20T10:36:30;96037.17;;;5.85;86.62
61359;BME280;47228;46.762;23.598;2023-01-20T10:39:04;96032.55;;;5.87;86.95
61359;BME280;47228;46.762;23.598;2023-01-20T10:41:41;96033.15;;;5.93;87.37
61359;BME280;47228;46.762;23.598;2023-01-20T10:44:13;96031.44;;;5.98;86.72
61359;BME280;47228;46.762;23.598;2023-01-20T10:57:11;95997.65;;;6.12;86.25
61359;BME280;47228;46.762;23.598;2023-01-20T10:59:54;95995.40;;;6.17;86.45
61359;BME280;47228;46.762;23.598;2023-01-20T11:02:31;95996.90;;;6.25;86.51
61359;BME280;47228;46.762;23.598;2023-01-20T11:07:39;95996.92;;;6.41;86.12
61359;BME280;47228;46.762;23.598;2023-01-20T11:12:44;95996.25;;;6.46;85.23
61359;BME280;47228;46.762;23.598;2023-01-20T11:15:20;95991.33;;;6.49;85.36
61359;BME280;47228;46.762;23.598;2023-01-20T11:20:50;95992.44;;;6.53;84.93
61359;BME280;47228;46.762;23.598;2023-01-20T11:26:07;95982.70;;;6.59;84.96
61359;BME280;47228;46.762;23.598;2023-01-20T11:28:58;95974.75;;;6.60;85.00
61359;BME280;47228;46.762;23.598;2023-01-20T11:31:39;95975.83;;;6.62;84.53
61359;BME280;47228;46.762;23.598;2023-01-20T11:34:33;95975.27;;;6.61;84.46
61359;BME280;47228;46.762;23.598;2023-01-20T11:39:32;95966.45;;;6.62;84.53
61359;BME280;47228;46.762;23.598;2023-01-20T11:42:27;95964.75;;;6.63;84.70
61359;BME280;47228;46.762;23.598;2023-01-20T11:45:00;95960.08;;;6.65;84.23
61359;BME280;47228;46.762;23.598;2023-01-20T11:50:59;95961.00;;;6.66;84.34
61359;BME280;47228;46.762;23.598;2023-01-20T11:53:32;95957.55;;;6.67;84.38
61359;BME280;47228;46.762;23.598;2023-01-20T11:56:02;95954.28;;;6.69;84.61
61359;BME280;47228;46.762;23.598;2023-01-20T11:58:48;95954.11;;;6.71;84.51
61359;BME280;47228;46.762;23.598;2023-01-20T12:01:52;95954.89;;;6.75;84.34
61359;BME280;47228;46.762;23.598;2023-01-20T12:04:42;95953.77;;;6.78;84.16
61359;BME280;47228;46.762;23.598;2023-01-20T12:07:23;95947.83;;;6.80;84.03
61359;BME280;47228;46.762;23.598;2023-01-20T12:10:16;95946.02;;;6.82;84.34
61359;BME280;47228;46.762;23.598;2023-01-20T12:12:53;95942.15;;;6.85;84.19
61359;BME280;47228;46.762;23.598;2023-01-20T12:15:28;95939.93;;;6.89;84.25
61359;BME280;47228;46.762;23.598;2023-01-20T12:18:11;95932.22;;;6.92;84.26
61359;BME280;47228;46.762;23.598;2023-01-20T12:21:10;95923.63;;;6.96;84.07
61359;BME280;47228;46.762;23.598;2023-01-20T12:24:02;95927.48;;;7.02;84.23
61359;BME280;47228;46.762;23.598;2023-01-20T12:26:35;95925.08;;;7.08;83.92
61359;BME280;47228;46.762;23.598;2023-01-20T12:29:19;95916.59;;;7.10;83.88
61359;BME280;47228;46.762;23.598;2023-01-20T12:31:50;95911.16;;;7.12;83.84
61359;BME280;47228;46.762;23.598;2023-01-20T12:34:32;95908.41;;;7.14;83.61
61359;BME280;47228;46.762;23.598;2023-01-20T12:40:11;95912.83;;;7.20;83.77
61359;BME280;47228;46.762;23.598;2023-01-20T12:51:21;95912.85;;;7.27;83.03
61359;BME280;47228;46.762;23.598;2023-01-20T12:59:37;95908.25;;;7.37;82.97
61359;BME280;47228;46.762;23.598;2023-01-20T13:07:54;95886.27;;;7.40;82.86
61359;BME280;47228;46.762;23.598;2023-01-20T13:19:11;95855.63;;;7.33;82.37
61359;BME280;47228;46.762;23.598;2023-01-20T13:21:40;95865.88;;;7.31;82.49
61359;BME280;47228;46.762;23.598;2023-01-20T13:24:17;95863.70;;;7.29;82.60
61359;BME280;47228;46.762;23.598;2023-01-20T13:26:51;95859.96;;;7.29;82.48
61359;BME280;47228;46.762;23.598;2023-01-20T13:32:03;95856.79;;;7.26;82.34
61359;BME280;47228;46.762;23.598;2023-01-20T13:34:33;95858.44;;;7.24;82.74
61359;BME280;47228;46.762;23.598;2023-01-20T13:50:35;95863.86;;;7.26;83.29
61359;BME280;47228;46.762;23.598;2023-01-20T13:53:14;95860.87;;;7.27;83.42
61359;BME280;47228;46.762;23.598;2023-01-20T13:55:52;95869.13;;;7.27;83.44
61359;BME280;47228;46.762;23.598;2023-01-20T13:58:29;95878.37;;;7.25;83.39
61359;BME280;47228;46.762;23.598;2023-01-20T14:01:01;95880.48;;;7.25;83.50
61359;BME280;47228;46.762;23.598;2023-01-20T14:03:32;95870.94;;;7.26;83.33
61359;BME280;47228;46.762;23.598;2023-01-20T14:08:40;95855.65;;;7.25;83.81
61359;BME280;47228;46.762;23.598;2023-01-20T14:11:25;95861.73;;;7.23;83.80
61359;BME280;47228;46.762;23.598;2023-01-20T14:14:03;95862.61;;;7.21;83.93
61359;BME280;47228;46.762;23.598;2023-01-20T14:21:52;95853.61;;;7.22;84.16
61359;BME280;47228;46.762;23.598;2023-01-20T14:24:35;95856.66;;;7.22;84.25
61359;BME280;47228;46.762;23.598;2023-01-20T14:27:20;95855.83;;;7.24;84.44
61359;BME280;47228;46.762;23.598;2023-01-20T14:29:51;95851.80;;;7.25;84.55
61359;BME280;47228;46.762;23.598;2023-01-20T14:32:23;95855.36;;;7.26;84.36
61359;BME280;47228;46.762;23.598;2023-01-20T14:34:53;95863.13;;;7.26;84.41
61359;BME280;47228;46.762;23.598;2023-01-20T14:39:56;95852.85;;;7.21;84.41
61359;BME280;47228;46.762;23.598;2023-01-20T14:42:27;95847.97;;;7.19;84.41
61359;BME280;47228;46.762;23.598;2023-01-20T14:44:56;95843.02;;;7.17;84.67
61359;BME280;47228;46.762;23.598;2023-01-20T14:47:25;95843.27;;;7.17;84.70
61359;BME280;47228;46.762;23.598;2023-01-20T14:49:54;95846.37;;;7.16;84.68
61359;BME280;47228;46.762;23.598;2023-01-20T14:52:28;95847.30;;;7.16;84.73
61359;BME280;47228;46.762;23.598;2023-01-20T14:54:57;95840.66;;;7.17;85.00
61359;BME280;47228;46.762;23.598;2023-01-20T14:57:30;95836.07;;;7.18;84.92
61359;BME280;47228;46.762;23.598;2023-01-20T15:02:51;95830.48;;;7.19;84.96
61359;BME280;47228;46.762;23.598;2023-01-20T15:05:52;95830.00;;;7.20;84.79
61359;BME280;47228;46.762;23.598;2023-01-20T15:21:44;95816.40;;;7.14;85.20
61359;BME280;47228;46.762;23.598;2023-01-20T15:24:16;95819.79;;;7.14;85.10
61359;BME280;47228;46.762;23.598;2023-01-20T15:26:46;95822.52;;;7.12;85.08
61359;BME280;47228;46.762;23.598;2023-01-20T15:31:49;95817.41;;;7.04;85.26
61359;BME280;47228;46.762;23.598;2023-01-20T15:34:18;95816.45;;;7.01;85.40
61359;BME280;47228;46.762;23.598;2023-01-20T15:36:48;95809.94;;;6.98;85.58
61359;BME280;47228;46.762;23.598;2023-01-20T15:39:24;95804.23;;;6.96;85.75
61359;BME280;47228;46.762;23.598;2023-01-20T15:41:56;95804.48;;;6.95;86.34
61359;BME280;47228;46.762;23.598;2023-01-20T15:44:25;95805.11;;;6.94;86.51
61359;BME280;47228;46.762;23.598;2023-01-20T15:46:54;95802.15;;;6.94;86.48
61359;BME280;47228;46.762;23.598;2023-01-20T15:49:24;95793.52;;;6.93;86.53
61359;BME280;47228;46.762;23.598;2023-01-20T15:51:52;95794.79;;;6.90;86.31
61359;BME280;47228;46.762;23.598;2023-01-20T15:54:20;95791.09;;;6.86;86.71
61359;BME280;47228;46.762;23.598;2023-01-20T15:56:48;95789.42;;;6.81;86.82